sensor_id;sensor_type;location;lat;lon;timestamp;temperature;humidity
8563;DHT22;16392;52.508;13.468;2022-12-24T00:01:50;6.50;99.90
8563;DHT22;16392;52.508;13.468;2022-12-24T00:04:17;6.50;99.90
8563;DHT22;16392;52.508;13.468;2022-12-24T00:06:43;6.50;99.90
8563;DHT22;16392;52.508;13.468;2022-12-24T00:09:10;6.50;99.90
8563;DHT22;16392;52.508;13.468;2022-12-24T00:11:37;6.50;99.90
8563;DHT22;16392;52.508;13.468;2022-12-24T00:14:03;6.50;99.90
8563;DHT22;16392;52.508;13.468;2022-12-24T00:16:30;6.50;99.90
8563;DHT22;16392;52.508;13.468;2022-12-24T00:18:58;6.50;99.90
8563;DHT22;16392;52.508;13.468;2022-12-24T00:21:25;6.50;99.90
8563;DHT22;16392;52.508;13.468;2022-12-24T00:23:52;6.50;99.90
8563;DHT22;16392;52.508;13.468;2022-12-24T00:26:19;6.50;99.90
8563;DHT22;16392;52.508;13.468;2022-12-24T00:28:46;6.40;99.90
8563;DHT22;16392;52.508;13.468;2022-12-24T00:31:16;6.40;99.90
8563;DHT22;16392;52.508;13.468;2022-12-24T00:33:44;6.50;99.90
8563;DHT22;16392;52.508;13.468;2022-12-24T00:36:14;6.40;99.90
8563;DHT22;16392;52.508;13.468;2022-12-24T00:38:42;6.40;99.90
8563;DHT22;16392;52.508;13.468;2022-12-24T00:41:10;6.40;99.90
8563;DHT22;16392;52.508;13.468;2022-12-24T00:43:49;6.40;99.90
8563;DHT22;16392;52.508;13.468;2022-12-24T00:46:16;6.40;99.90
8563;DHT22;16392;52.508;13.468;2022-12-24T00:48:43;6.50;99.90
8563;DHT22;16392;52.508;13.468;2022-12-24T00:51:10;6.50;99.90
8563;DHT22;16392;52.508;13.468;2022-12-24T00:53:38;6.50;99.90
8563;DHT22;16392;52.508;13.468;2022-12-24T00:56:06;6.50;99.90
8563;DHT22;16392;52.508;13.468;2022-12-24T00:58:33;6.50;99.90
8563;DHT22;16392;52.508;13.468;2022-12-24T01:01:00;6.40;99.90
8563;DHT22;16392;52.508;13.468;2022-12-24T01:03:27;6.50;99.90
8563;DHT22;16392;52.508;13.468;2022-12-24T01:06:00;6.50;99.90
8563;DHT22;16392;52.508;13.468;2022-12-24T01:08:25;6.50;99.90
8563;DHT22;16392;52.508;13.468;2022-12-24T01:10:53;6.50;99.90
8563;DHT22;16392;52.508;13.468;2022-12-24T01:13:20;6.50;99.90
8563;DHT22;16392;52.508;13.468;2022-12-24T01:15:47;6.50;99.90
8563;DHT22;16392;52.508;13.468;2022-12-24T01:18:13;6.50;99.90
8563;DHT22;16392;52.508;13.468;2022-12-24T01:20:40;6.50;99.90
8563;DHT22;16392;52.508;13.468;2022-12-24T01:23:07;6.50;99.90
8563;DHT22;16392;52.508;13.468;2022-12-24T01:25:36;6.60;99.90
8563;DHT22;16392;52.508;13.468;2022-12-24T01:28:04;6.60;99.90
8563;DHT22;16392;52.508;13.468;2022-12-24T01:30:31;6.60;99.90
8563;DHT22;16392;52.508;13.468;2022-12-24T01:32:58;6.50;99.90
8563;DHT22;16392;52.508;13.468;2022-12-24T01:35:24;6.50;99.90
8563;DHT22;16392;52.508;13.468;2022-12-24T01:37:51;6.60;99.90
8563;DHT22;16392;52.508;13.468;2022-12-24T01:40:18;6.60;99.90
8563;DHT22;16392;52.508;13.468;2022-12-24T01:43:04;6.60;99.90
8563;DHT22;16392;52.508;13.468;2022-12-24T01:45:50;6.60;99.90
8563;DHT22;16392;52.508;13.468;2022-12-24T01:48:21;6.60;99.90
8563;DHT22;16392;52.508;13.468;2022-12-24T01:50:52;6.60;99.90
8563;DHT22;16392;52.508;13.468;2022-12-24T01:53:19;6.60;99.90
8563;DHT22;16392;52.508;13.468;2022-12-24T01:55:46;6.60;99.90
8563;DHT22;16392;52.508;13.468;2022-12-24T01:58:17;6.60;99.90
8563;DHT22;16392;52.508;13.468;2022-12-24T02:00:46;6.60;99.90
8563;DHT22;16392;52.508;13.468;2022-12-24T02:03:12;6.60;99.90
8563;DHT22;16392;52.508;13.468;2022-12-24T02:05:46;6.60;99.90
8563;DHT22;16392;52.508;13.468;2022-12-24T02:08:14;6.60;99.90
8563;DHT22;16392;52.508;13.468;2022-12-24T02:10:41;6.60;99.90
8563;DHT22;16392;52.508;13.468;2022-12-24T02:13:08;6.70;99.90
8563;DHT22;16392;52.508;13.468;2022-12-24T02:15:46;6.60;99.90
8563;DHT22;16392;52.508;13.468;2022-12-24T02:18:21;6.70;99.90
8563;DHT22;16392;52.508;13.468;2022-12-24T02:21:25;6.60;99.90
8563;DHT22;16392;52.508;13.468;2022-12-24T02:24:36;6.70;99.90
8563;DHT22;16392;52.508;13.468;2022-12-24T02:27:10;6.70;99.90
8563;DHT22;16392;52.508;13.468;2022-12-24T02:29:59;6.70;99.90
8563;DHT22;16392;52.508;13.468;2022-12-24T02:32:33;6.70;99.90
8563;DHT22;16392;52.508;13.468;2022-12-24T02:35:04;6.70;99.90
8563;DHT22;16392;52.508;13.468;2022-12-24T02:37:37;6.70;99.90
8563;DHT22;16392;52.508;13.468;2022-12-24T02:40:08;6.70;99.90
8563;DHT22;16392;52.508;13.468;2022-12-24T02:42:39;6.70;99.90
8563;DHT22;16392;52.508;13.468;2022-12-24T02:45:09;6.70;99.90
8563;DHT22;16392;52.508;13.468;2022-12-24T02:47:38;6.70;99.90
8563;DHT22;16392;52.508;13.468;2022-12-24T02:50:07;6.70;99.90
8563;DHT22;16392;52.508;13.468;2022-12-24T02:52:35;6.70;99.90
8563;DHT22;16392;52.508;13.468;2022-12-24T02:55:05;6.70;99.90
8563;DHT22;16392;52.508;13.468;2022-12-24T02:57:43;6.70;99.90
8563;DHT22;16392;52.508;13.468;2022-12-24T03:00:18;6.70;99.90
8563;DHT22;16392;52.508;13.468;2022-12-24T03:03:18;6.70;99.90
8563;DHT22;16392;52.508;13.468;2022-12-24T03:05:50;6.70;99.90
8563;DHT22;16392;52.508;13.468;2022-12-24T03:08:24;6.60;99.90
8563;DHT22;16392;52.508;13.468;2022-12-24T03:10:56;6.60;99.90
8563;DHT22;16392;52.508;13.468;2022-12-24T03:13:26;6.60;99.90
8563;DHT22;16392;52.508;13.468;2022-12-24T03:15:55;6.60;99.90
8563;DHT22;16392;52.508;13.468;2022-12-24T03:18:24;6.60;99.90
8563;DHT22;16392;52.508;13.468;2022-12-24T03:20:57;6.60;99.90
8563;DHT22;16392;52.508;13.468;2022-12-24T03:23:24;6.60;99.90
8563;DHT22;16392;52.508;13.468;2022-12-24T03:25:53;6.60;99.90
8563;DHT22;16392;52.508;13.468;2022-12-24T03:28:24;6.50;99.90
8563;DHT22;16392;52.508;13.468;2022-12-24T03:30:51;6.50;99.90
8563;DHT22;16392;52.508;13.468;2022-12-24T03:33:20;6.50;99.90
8563;DHT22;16392;52.508;13.468;2022-12-24T03:35:47;6.60;99.90
8563;DHT22;16392;52.508;13.468;2022-12-24T03:38:13;6.50;99.90
8563;DHT22;16392;52.508;13.468;2022-12-24T03:40:40;6.50;99.90
8563;DHT22;16392;52.508;13.468;2022-12-24T03:43:07;6.50;99.90
8563;DHT22;16392;52.508;13.468;2022-12-24T03:45:33;6.50;99.90
8563;DHT22;16392;52.508;13.468;2022-12-24T03:48:00;6.50;99.90
8563;DHT22;16392;52.508;13.468;2022-12-24T03:50:28;6.50;99.90
8563;DHT22;16392;52.508;13.468;2022-12-24T03:52:55;6.50;99.90
8563;DHT22;16392;52.508;13.468;2022-12-24T03:55:21;6.50;99.90
8563;DHT22;16392;52.508;13.468;2022-12-24T03:57:48;6.50;99.90
8563;DHT22;16392;52.508;13.468;2022-12-24T04:00:15;6.50;99.90
8563;DHT22;16392;52.508;13.468;2022-12-24T04:02:42;6.50;99.90
8563;DHT22;16392;52.508;13.468;2022-12-24T04:05:12;6.50;99.90
8563;DHT22;16392;52.508;13.468;2022-12-24T04:07:41;6.50;99.90
8563;DHT22;16392;52.508;13.468;2022-12-24T04:10:08;6.50;99.90
8563;DHT22;16392;52.508;13.468;2022-12-24T04:12:35;6.50;99.90
8563;DHT22;16392;52.508;13.468;2022-12-24T04:15:03;6.50;99.90
8563;DHT22;16392;52.508;13.468;2022-12-24T04:17:29;6.40;99.90
8563;DHT22;16392;52.508;13.468;2022-12-24T04:19:56;6.40;99.90
8563;DHT22;16392;52.508;13.468;2022-12-24T04:22:23;6.40;99.90
8563;DHT22;16392;52.508;13.468;2022-12-24T04:24:51;6.40;99.90
8563;DHT22;16392;52.508;13.468;2022-12-24T04:27:18;6.40;99.90
8563;DHT22;16392;52.508;13.468;2022-12-24T04:29:44;6.40;99.90
8563;DHT22;16392;52.508;13.468;2022-12-24T04:32:12;6.40;99.90
8563;DHT22;16392;52.508;13.468;2022-12-24T04:34:39;6.40;99.90
8563;DHT22;16392;52.508;13.468;2022-12-24T04:37:08;6.30;99.90
8563;DHT22;16392;52.508;13.468;2022-12-24T04:39:35;6.30;99.90
8563;DHT22;16392;52.508;13.468;2022-12-24T04:42:03;6.30;99.90
8563;DHT22;16392;52.508;13.468;2022-12-24T04:44:30;6.30;99.90
8563;DHT22;16392;52.508;13.468;2022-12-24T04:46:57;6.30;99.90
8563;DHT22;16392;52.508;13.468;2022-12-24T04:49:23;6.30;99.90
8563;DHT22;16392;52.508;13.468;2022-12-24T04:51:50;6.30;99.90
8563;DHT22;16392;52.508;13.468;2022-12-24T04:54:17;6.30;99.90
8563;DHT22;16392;52.508;13.468;2022-12-24T04:56:43;6.30;99.90
8563;DHT22;16392;52.508;13.468;2022-12-24T04:59:11;6.30;99.90
8563;DHT22;16392;52.508;13.468;2022-12-24T05:01:38;6.30;99.90
8563;DHT22;16392;52.508;13.468;2022-12-24T05:04:04;6.30;99.90
8563;DHT22;16392;52.508;13.468;2022-12-24T05:06:32;6.30;99.90
8563;DHT22;16392;52.508;13.468;2022-12-24T05:08:59;6.30;99.90
8563;DHT22;16392;52.508;13.468;2022-12-24T05:11:26;6.30;99.90
8563;DHT22;16392;52.508;13.468;2022-12-24T05:13:53;6.30;99.90
8563;DHT22;16392;52.508;13.468;2022-12-24T05:16:22;6.30;99.90
8563;DHT22;16392;52.508;13.468;2022-12-24T05:18:49;6.30;99.90
8563;DHT22;16392;52.508;13.468;2022-12-24T05:21:17;6.30;99.90
8563;DHT22;16392;52.508;13.468;2022-12-24T05:23:44;6.30;99.90
8563;DHT22;16392;52.508;13.468;2022-12-24T05:26:32;6.30;99.90
8563;DHT22;16392;52.508;13.468;2022-12-24T05:28:59;6.30;99.90
8563;DHT22;16392;52.508;13.468;2022-12-24T05:31:30;6.20;99.90
8563;DHT22;16392;52.508;13.468;2022-12-24T05:34:00;6.30;99.90
8563;DHT22;16392;52.508;13.468;2022-12-24T05:36:27;6.30;99.90
8563;DHT22;16392;52.508;13.468;2022-12-24T05:38:54;6.30;99.90
8563;DHT22;16392;52.508;13.468;2022-12-24T05:41:21;6.30;99.90
8563;DHT22;16392;52.508;13.468;2022-12-24T05:43:47;6.20;99.90
8563;DHT22;16392;52.508;13.468;2022-12-24T05:46:16;6.20;99.90
8563;DHT22;16392;52.508;13.468;2022-12-24T05:48:44;6.20;99.90
8563;DHT22;16392;52.508;13.468;2022-12-24T05:51:12;6.20;99.90
8563;DHT22;16392;52.508;13.468;2022-12-24T05:53:40;6.20;99.90
8563;DHT22;16392;52.508;13.468;2022-12-24T05:56:08;6.20;99.90
8563;DHT22;16392;52.508;13.468;2022-12-24T05:58:36;6.20;99.90
8563;DHT22;16392;52.508;13.468;2022-12-24T06:01:03;6.20;99.90
8563;DHT22;16392;52.508;13.468;2022-12-24T06:03:31;6.10;99.90
8563;DHT22;16392;52.508;13.468;2022-12-24T06:06:01;6.10;99.90
8563;DHT22;16392;52.508;13.468;2022-12-24T06:08:30;6.10;99.90
8563;DHT22;16392;52.508;13.468;2022-12-24T06:10:58;6.20;99.90
8563;DHT22;16392;52.508;13.468;2022-12-24T06:13:24;6.20;99.90
8563;DHT22;16392;52.508;13.468;2022-12-24T06:15:53;6.10;99.90
8563;DHT22;16392;52.508;13.468;2022-12-24T06:18:20;6.10;99.90
8563;DHT22;16392;52.508;13.468;2022-12-24T06:20:49;6.10;99.90
8563;DHT22;16392;52.508;13.468;2022-12-24T06:23:18;6.10;99.90
8563;DHT22;16392;52.508;13.468;2022-12-24T06:25:45;6.10;99.90
8563;DHT22;16392;52.508;13.468;2022-12-24T06:28:11;6.10;99.90
8563;DHT22;16392;52.508;13.468;2022-12-24T06:30:38;6.10;99.90
8563;DHT22;16392;52.508;13.468;2022-12-24T06:33:05;6.10;99.90
8563;DHT22;16392;52.508;13.468;2022-12-24T06:35:32;6.10;99.90
8563;DHT22;16392;52.508;13.468;2022-12-24T06:37:59;6.10;99.90
8563;DHT22;16392;52.508;13.468;2022-12-24T06:40:27;6.10;99.90
8563;DHT22;16392;52.508;13.468;2022-12-24T06:42:54;6.10;99.90
8563;DHT22;16392;52.508;13.468;2022-12-24T06:45:20;6.00;99.90
8563;DHT22;16392;52.508;13.468;2022-12-24T06:47:47;6.00;99.90
8563;DHT22;16392;52.508;13.468;2022-12-24T06:50:14;6.00;99.90
8563;DHT22;16392;52.508;13.468;2022-12-24T06:52:40;6.10;99.90
8563;DHT22;16392;52.508;13.468;2022-12-24T06:55:08;6.10;99.90
8563;DHT22;16392;52.508;13.468;2022-12-24T06:57:36;6.10;99.90
8563;DHT22;16392;52.508;13.468;2022-12-24T07:00:03;6.00;99.90
8563;DHT22;16392;52.508;13.468;2022-12-24T07:02:30;6.10;99.90
8563;DHT22;16392;52.508;13.468;2022-12-24T07:04:57;6.00;99.90
8563;DHT22;16392;52.508;13.468;2022-12-24T07:07:23;6.00;99.90
8563;DHT22;16392;52.508;13.468;2022-12-24T07:09:50;6.00;99.90
8563;DHT22;16392;52.508;13.468;2022-12-24T07:12:16;6.00;99.90
8563;DHT22;16392;52.508;13.468;2022-12-24T07:14:44;6.00;99.90
8563;DHT22;16392;52.508;13.468;2022-12-24T07:17:11;6.00;99.90
8563;DHT22;16392;52.508;13.468;2022-12-24T07:19:38;6.10;99.90
8563;DHT22;16392;52.508;13.468;2022-12-24T07:22:04;6.00;99.90
8563;DHT22;16392;52.508;13.468;2022-12-24T07:24:31;6.00;99.90
8563;DHT22;16392;52.508;13.468;2022-12-24T07:26:57;6.00;99.90
8563;DHT22;16392;52.508;13.468;2022-12-24T07:29:24;6.00;99.90
8563;DHT22;16392;52.508;13.468;2022-12-24T07:31:52;6.10;99.90
8563;DHT22;16392;52.508;13.468;2022-12-24T07:34:19;6.10;99.90
8563;DHT22;16392;52.508;13.468;2022-12-24T07:36:45;6.10;99.90
8563;DHT22;16392;52.508;13.468;2022-12-24T07:39:12;6.10;99.90
8563;DHT22;16392;52.508;13.468;2022-12-24T07:41:38;6.10;99.90
8563;DHT22;16392;52.508;13.468;2022-12-24T07:44:05;6.10;99.90
8563;DHT22;16392;52.508;13.468;2022-12-24T07:46:32;6.10;99.90
8563;DHT22;16392;52.508;13.468;2022-12-24T07:49:00;6.00;99.90
8563;DHT22;16392;52.508;13.468;2022-12-24T07:51:26;6.00;99.90
8563;DHT22;16392;52.508;13.468;2022-12-24T07:53:53;6.10;99.90
8563;DHT22;16392;52.508;13.468;2022-12-24T07:56:19;6.10;99.90
8563;DHT22;16392;52.508;13.468;2022-12-24T07:58:46;6.10;99.90
8563;DHT22;16392;52.508;13.468;2022-12-24T08:01:13;6.10;99.90
8563;DHT22;16392;52.508;13.468;2022-12-24T08:03:40;6.10;99.90
8563;DHT22;16392;52.508;13.468;2022-12-24T08:06:08;6.10;99.90
8563;DHT22;16392;52.508;13.468;2022-12-24T08:08:35;6.10;99.90
8563;DHT22;16392;52.508;13.468;2022-12-24T08:11:04;6.10;99.90
8563;DHT22;16392;52.508;13.468;2022-12-24T08:13:31;6.10;99.90
8563;DHT22;16392;52.508;13.468;2022-12-24T08:15:58;6.10;99.90
8563;DHT22;16392;52.508;13.468;2022-12-24T08:18:25;6.10;99.90
8563;DHT22;16392;52.508;13.468;2022-12-24T08:20:52;6.10;99.90
8563;DHT22;16392;52.508;13.468;2022-12-24T08:23:20;6.10;99.90
8563;DHT22;16392;52.508;13.468;2022-12-24T08:25:47;6.10;99.90
8563;DHT22;16392;52.508;13.468;2022-12-24T08:28:16;6.20;99.90
8563;DHT22;16392;52.508;13.468;2022-12-24T08:30:43;6.10;99.90
8563;DHT22;16392;52.508;13.468;2022-12-24T08:33:10;6.10;99.90
8563;DHT22;16392;52.508;13.468;2022-12-24T08:35:37;6.10;99.90
8563;DHT22;16392;52.508;13.468;2022-12-24T08:38:04;6.10;99.90
8563;DHT22;16392;52.508;13.468;2022-12-24T08:40:32;6.10;99.90
8563;DHT22;16392;52.508;13.468;2022-12-24T08:43:00;6.10;99.90
8563;DHT22;16392;52.508;13.468;2022-12-24T08:45:27;6.10;99.90
8563;DHT22;16392;52.508;13.468;2022-12-24T08:47:53;6.10;99.90
8563;DHT22;16392;52.508;13.468;2022-12-24T08:50:20;6.10;99.90
8563;DHT22;16392;52.508;13.468;2022-12-24T08:52:47;6.10;99.90
8563;DHT22;16392;52.508;13.468;2022-12-24T08:55:13;6.10;99.90
8563;DHT22;16392;52.508;13.468;2022-12-24T08:57:42;6.10;99.90
8563;DHT22;16392;52.508;13.468;2022-12-24T09:00:11;6.10;99.90
8563;DHT22;16392;52.508;13.468;2022-12-24T09:02:38;6.10;99.90
8563;DHT22;16392;52.508;13.468;2022-12-24T09:05:05;6.10;99.90
8563;DHT22;16392;52.508;13.468;2022-12-24T09:07:32;6.20;99.90
8563;DHT22;16392;52.508;13.468;2022-12-24T09:09:59;6.20;99.90
8563;DHT22;16392;52.508;13.468;2022-12-24T09:12:25;6.20;99.90
8563;DHT22;16392;52.508;13.468;2022-12-24T09:14:53;6.20;99.90
8563;DHT22;16392;52.508;13.468;2022-12-24T09:17:20;6.20;99.90
8563;DHT22;16392;52.508;13.468;2022-12-24T09:19:47;6.20;99.90
8563;DHT22;16392;52.508;13.468;2022-12-24T09:22:13;6.20;99.90
8563;DHT22;16392;52.508;13.468;2022-12-24T09:24:40;6.20;99.90
8563;DHT22;16392;52.508;13.468;2022-12-24T09:27:07;6.20;99.90
8563;DHT22;16392;52.508;13.468;2022-12-24T09:29:34;6.20;99.90
8563;DHT22;16392;52.508;13.468;2022-12-24T09:32:02;6.20;99.90
8563;DHT22;16392;52.508;13.468;2022-12-24T09:34:29;6.30;99.90
8563;DHT22;16392;52.508;13.468;2022-12-24T09:36:56;6.30;99.90
8563;DHT22;16392;52.508;13.468;2022-12-24T09:39:22;6.30;99.90
8563;DHT22;16392;52.508;13.468;2022-12-24T09:41:56;6.40;99.90
8563;DHT22;16392;52.508;13.468;2022-12-24T09:44:34;6.30;99.90
8563;DHT22;16392;52.508;13.468;2022-12-24T09:47:11;6.40;99.90
8563;DHT22;16392;52.508;13.468;2022-12-24T09:49:43;6.40;99.90
8563;DHT22;16392;52.508;13.468;2022-12-24T09:52:13;6.50;99.90
8563;DHT22;16392;52.508;13.468;2022-12-24T09:54:44;6.50;99.90
8563;DHT22;16392;52.508;13.468;2022-12-24T09:57:16;6.50;99.90
8563;DHT22;16392;52.508;13.468;2022-12-24T09:59:46;6.50;99.90
8563;DHT22;16392;52.508;13.468;2022-12-24T10:02:16;6.40;99.90
8563;DHT22;16392;52.508;13.468;2022-12-24T10:04:44;6.40;99.90
8563;DHT22;16392;52.508;13.468;2022-12-24T10:07:21;6.40;99.90
8563;DHT22;16392;52.508;13.468;2022-12-24T10:09:58;6.40;99.90
8563;DHT22;16392;52.508;13.468;2022-12-24T10:12:31;6.50;99.90
8563;DHT22;16392;52.508;13.468;2022-12-24T10:15:08;6.50;99.90
8563;DHT22;16392;52.508;13.468;2022-12-24T10:17:48;6.50;99.90
8563;DHT22;16392;52.508;13.468;2022-12-24T10:20:30;6.60;99.90
8563;DHT22;16392;52.508;13.468;2022-12-24T10:23:04;6.70;99.90
8563;DHT22;16392;52.508;13.468;2022-12-24T10:25:37;6.70;99.90
8563;DHT22;16392;52.508;13.468;2022-12-24T10:28:13;6.80;99.90
8563;DHT22;16392;52.508;13.468;2022-12-24T10:30:42;6.90;99.90
8563;DHT22;16392;52.508;13.468;2022-12-24T10:33:17;7.10;99.90
8563;DHT22;16392;52.508;13.468;2022-12-24T10:35:47;7.10;99.90
8563;DHT22;16392;52.508;13.468;2022-12-24T10:38:16;7.30;99.90
8563;DHT22;16392;52.508;13.468;2022-12-24T10:40:44;7.40;99.90
8563;DHT22;16392;52.508;13.468;2022-12-24T10:43:14;7.50;99.90
8563;DHT22;16392;52.508;13.468;2022-12-24T10:45:43;7.50;99.90
8563;DHT22;16392;52.508;13.468;2022-12-24T10:48:19;7.50;99.90
8563;DHT22;16392;52.508;13.468;2022-12-24T10:50:53;7.50;99.90
8563;DHT22;16392;52.508;13.468;2022-12-24T10:53:24;7.60;99.90
8563;DHT22;16392;52.508;13.468;2022-12-24T10:56:01;7.60;99.90
8563;DHT22;16392;52.508;13.468;2022-12-24T10:58:30;7.70;99.90
8563;DHT22;16392;52.508;13.468;2022-12-24T11:00:57;7.80;99.90
8563;DHT22;16392;52.508;13.468;2022-12-24T11:03:29;7.90;99.90
8563;DHT22;16392;52.508;13.468;2022-12-24T11:06:08;8.00;99.90
8563;DHT22;16392;52.508;13.468;2022-12-24T11:08:37;8.10;99.90
8563;DHT22;16392;52.508;13.468;2022-12-24T11:11:06;8.10;99.90
8563;DHT22;16392;52.508;13.468;2022-12-24T11:13:35;8.10;99.90
8563;DHT22;16392;52.508;13.468;2022-12-24T11:16:05;8.20;99.90
8563;DHT22;16392;52.508;13.468;2022-12-24T11:18:35;8.20;99.90
8563;DHT22;16392;52.508;13.468;2022-12-24T11:21:04;8.20;99.90
8563;DHT22;16392;52.508;13.468;2022-12-24T11:23:31;8.20;99.90
8563;DHT22;16392;52.508;13.468;2022-12-24T11:25:58;8.20;99.90
8563;DHT22;16392;52.508;13.468;2022-12-24T11:28:27;8.20;99.90
8563;DHT22;16392;52.508;13.468;2022-12-24T11:31:00;8.30;99.90
8563;DHT22;16392;52.508;13.468;2022-12-24T11:33:28;8.30;99.90
8563;DHT22;16392;52.508;13.468;2022-12-24T11:36:00;8.30;99.90
8563;DHT22;16392;52.508;13.468;2022-12-24T11:38:28;8.30;99.90
8563;DHT22;16392;52.508;13.468;2022-12-24T11:41:01;8.30;99.90
8563;DHT22;16392;52.508;13.468;2022-12-24T11:43:35;8.30;99.90
8563;DHT22;16392;52.508;13.468;2022-12-24T11:46:34;8.40;99.90
8563;DHT22;16392;52.508;13.468;2022-12-24T11:49:14;8.40;99.90
8563;DHT22;16392;52.508;13.468;2022-12-24T11:52:03;8.40;99.90
8563;DHT22;16392;52.508;13.468;2022-12-24T11:54:39;8.50;99.90
8563;DHT22;16392;52.508;13.468;2022-12-24T11:57:13;8.50;99.90
8563;DHT22;16392;52.508;13.468;2022-12-24T11:59:43;8.60;99.90
8563;DHT22;16392;52.508;13.468;2022-12-24T12:02:16;8.60;99.90
8563;DHT22;16392;52.508;13.468;2022-12-24T12:04:47;8.70;99.90
8563;DHT22;16392;52.508;13.468;2022-12-24T12:07:19;8.70;99.90
8563;DHT22;16392;52.508;13.468;2022-12-24T12:09:49;8.70;99.90
8563;DHT22;16392;52.508;13.468;2022-12-24T12:12:20;8.70;99.90
8563;DHT22;16392;52.508;13.468;2022-12-24T12:14:49;8.60;99.90
8563;DHT22;16392;52.508;13.468;2022-12-24T12:17:25;8.70;99.90
8563;DHT22;16392;52.508;13.468;2022-12-24T12:19:58;8.70;99.90
8563;DHT22;16392;52.508;13.468;2022-12-24T12:22:33;8.70;99.90
8563;DHT22;16392;52.508;13.468;2022-12-24T12:25:05;8.70;99.90
8563;DHT22;16392;52.508;13.468;2022-12-24T12:27:41;8.70;99.90
8563;DHT22;16392;52.508;13.468;2022-12-24T12:30:14;8.70;99.90
8563;DHT22;16392;52.508;13.468;2022-12-24T12:32:46;8.80;99.90
8563;DHT22;16392;52.508;13.468;2022-12-24T12:35:20;8.90;99.90
8563;DHT22;16392;52.508;13.468;2022-12-24T12:37:55;9.00;99.90
8563;DHT22;16392;52.508;13.468;2022-12-24T12:40:30;9.20;99.90
8563;DHT22;16392;52.508;13.468;2022-12-24T12:43:04;9.30;99.90
8563;DHT22;16392;52.508;13.468;2022-12-24T12:45:38;9.40;99.90
8563;DHT22;16392;52.508;13.468;2022-12-24T12:48:19;9.50;99.90
8563;DHT22;16392;52.508;13.468;2022-12-24T12:50:53;9.60;99.90
8563;DHT22;16392;52.508;13.468;2022-12-24T12:53:34;9.50;99.90
8563;DHT22;16392;52.508;13.468;2022-12-24T12:56:12;9.50;99.90
8563;DHT22;16392;52.508;13.468;2022-12-24T12:58:46;9.40;99.90
8563;DHT22;16392;52.508;13.468;2022-12-24T13:01:19;9.40;99.90
8563;DHT22;16392;52.508;13.468;2022-12-24T13:04:07;9.50;99.90
8563;DHT22;16392;52.508;13.468;2022-12-24T13:07:08;9.50;99.90
8563;DHT22;16392;52.508;13.468;2022-12-24T13:10:19;9.50;99.90
8563;DHT22;16392;52.508;13.468;2022-12-24T13:13:03;9.50;99.90
8563;DHT22;16392;52.508;13.468;2022-12-24T13:15:50;9.50;99.90
8563;DHT22;16392;52.508;13.468;2022-12-24T13:18:36;9.50;99.90
8563;DHT22;16392;52.508;13.468;2022-12-24T13:21:17;9.50;99.90
8563;DHT22;16392;52.508;13.468;2022-12-24T13:23:46;9.50;99.90
8563;DHT22;16392;52.508;13.468;2022-12-24T13:26:15;9.50;99.90
8563;DHT22;16392;52.508;13.468;2022-12-24T13:28:44;9.60;99.90
8563;DHT22;16392;52.508;13.468;2022-12-24T13:31:24;9.50;99.90
8563;DHT22;16392;52.508;13.468;2022-12-24T13:33:53;9.60;99.90
8563;DHT22;16392;52.508;13.468;2022-12-24T13:36:20;9.60;99.90
8563;DHT22;16392;52.508;13.468;2022-12-24T13:38:48;9.60;99.90
8563;DHT22;16392;52.508;13.468;2022-12-24T13:41:44;9.70;99.90
8563;DHT22;16392;52.508;13.468;2022-12-24T13:44:25;9.60;99.90
8563;DHT22;16392;52.508;13.468;2022-12-24T13:47:15;9.70;99.90
8563;DHT22;16392;52.508;13.468;2022-12-24T13:49:48;9.60;99.90
8563;DHT22;16392;52.508;13.468;2022-12-24T13:52:20;9.50;99.90
8563;DHT22;16392;52.508;13.468;2022-12-24T13:54:59;9.50;99.90
8563;DHT22;16392;52.508;13.468;2022-12-24T13:57:35;9.40;99.90
8563;DHT22;16392;52.508;13.468;2022-12-24T14:00:06;9.30;99.90
8563;DHT22;16392;52.508;13.468;2022-12-24T14:02:37;9.20;99.90
8563;DHT22;16392;52.508;13.468;2022-12-24T14:05:14;9.10;99.90
8563;DHT22;16392;52.508;13.468;2022-12-24T14:07:45;9.10;99.90
8563;DHT22;16392;52.508;13.468;2022-12-24T14:10:20;9.10;99.90
8563;DHT22;16392;52.508;13.468;2022-12-24T14:12:51;9.20;99.90
8563;DHT22;16392;52.508;13.468;2022-12-24T14:18:32;9.20;99.90
8563;DHT22;16392;52.508;13.468;2022-12-24T14:21:00;9.20;99.90
8563;DHT22;16392;52.508;13.468;2022-12-24T14:23:35;9.20;99.90
8563;DHT22;16392;52.508;13.468;2022-12-24T14:26:04;9.10;99.90
8563;DHT22;16392;52.508;13.468;2022-12-24T14:28:42;9.10;99.90
8563;DHT22;16392;52.508;13.468;2022-12-24T14:31:15;9.10;99.90
8563;DHT22;16392;52.508;13.468;2022-12-24T14:33:41;9.00;99.90
8563;DHT22;16392;52.508;13.468;2022-12-24T14:36:08;9.00;99.90
8563;DHT22;16392;52.508;13.468;2022-12-24T14:38:36;9.00;99.90
8563;DHT22;16392;52.508;13.468;2022-12-24T14:41:07;9.10;99.90
8563;DHT22;16392;52.508;13.468;2022-12-24T14:43:49;9.10;99.90
8563;DHT22;16392;52.508;13.468;2022-12-24T14:46:23;9.20;99.90
8563;DHT22;16392;52.508;13.468;2022-12-24T14:48:53;9.10;99.90
8563;DHT22;16392;52.508;13.468;2022-12-24T14:51:27;9.10;99.90
8563;DHT22;16392;52.508;13.468;2022-12-24T14:54:19;9.00;99.90
8563;DHT22;16392;52.508;13.468;2022-12-24T14:57:11;8.90;99.90
8563;DHT22;16392;52.508;13.468;2022-12-24T14:59:46;8.80;99.90
8563;DHT22;16392;52.508;13.468;2022-12-24T15:02:22;8.80;99.90
8563;DHT22;16392;52.508;13.468;2022-12-24T15:05:02;8.80;99.90
8563;DHT22;16392;52.508;13.468;2022-12-24T15:07:30;8.90;99.90
8563;DHT22;16392;52.508;13.468;2022-12-24T15:09:56;8.90;99.90
8563;DHT22;16392;52.508;13.468;2022-12-24T15:12:23;9.00;99.90
8563;DHT22;16392;52.508;13.468;2022-12-24T15:14:51;9.00;99.90
8563;DHT22;16392;52.508;13.468;2022-12-24T15:17:18;9.00;99.90
8563;DHT22;16392;52.508;13.468;2022-12-24T15:19:47;9.00;99.90
8563;DHT22;16392;52.508;13.468;2022-12-24T15:22:22;9.00;99.90
8563;DHT22;16392;52.508;13.468;2022-12-24T15:24:49;8.90;99.90
8563;DHT22;16392;52.508;13.468;2022-12-24T15:27:17;8.80;99.90
8563;DHT22;16392;52.508;13.468;2022-12-24T15:29:46;8.70;99.90
8563;DHT22;16392;52.508;13.468;2022-12-24T15:32:17;8.60;99.90
8563;DHT22;16392;52.508;13.468;2022-12-24T15:34:46;8.60;99.90
8563;DHT22;16392;52.508;13.468;2022-12-24T15:37:16;8.50;99.90
8563;DHT22;16392;52.508;13.468;2022-12-24T15:39:44;8.40;99.90
8563;DHT22;16392;52.508;13.468;2022-12-24T15:42:17;8.40;99.90
8563;DHT22;16392;52.508;13.468;2022-12-24T15:44:54;8.30;99.90
8563;DHT22;16392;52.508;13.468;2022-12-24T15:47:27;8.30;99.90
8563;DHT22;16392;52.508;13.468;2022-12-24T15:49:55;8.40;99.90
8563;DHT22;16392;52.508;13.468;2022-12-24T15:52:23;8.40;99.90
8563;DHT22;16392;52.508;13.468;2022-12-24T15:54:50;8.40;99.90
8563;DHT22;16392;52.508;13.468;2022-12-24T15:57:22;8.30;99.90
8563;DHT22;16392;52.508;13.468;2022-12-24T15:59:52;8.20;99.90
8563;DHT22;16392;52.508;13.468;2022-12-24T16:02:38;8.10;99.90
8563;DHT22;16392;52.508;13.468;2022-12-24T16:05:26;8.10;99.90
8563;DHT22;16392;52.508;13.468;2022-12-24T16:08:05;8.10;99.90
8563;DHT22;16392;52.508;13.468;2022-12-24T16:10:33;8.00;99.90